sensor_id;sensor_type;location;lat;lon;timestamp;pressure;altitude;pressure_sealevel;temperature;humidity
43681;BME280;29281;50.356;30.894;2023-07-31T00:00:03;99405.03;;;21.22;100.00
43681;BME280;29281;50.356;30.894;2023-07-31T00:01:07;99408.99;;;21.26;100.00
43681;BME280;29281;50.356;30.894;2023-07-31T00:02:12;99404.81;;;21.24;100.00
43681;BME280;29281;50.356;30.894;2023-07-31T00:03:16;99400.89;;;21.26;100.00
43681;BME280;29281;50.356;30.894;2023-07-31T00:04:21;99405.09;;;21.14;100.00
43681;BME280;29281;50.356;30.894;2023-07-31T00:05:24;99397.19;;;21.13;100.00
43681;BME280;29281;50.356;30.894;2023-07-31T00:06:31;99392.38;;;21.08;100.00
43681;BME280;29281;50.356;30.894;2023-07-31T00:07:34;99395.97;;;21.15;100.00
43681;BME280;29281;50.356;30.894;2023-07-31T00:08:38;99394.61;;;21.19;100.00
43681;BME280;29281;50.356;30.894;2023-07-31T00:09:42;99398.79;;;21.22;100.00
43681;BME280;29281;50.356;30.894;2023-07-31T00:10:44;99394.00;;;21.24;100.00
43681;BME280;29281;50.356;30.894;2023-07-31T00:11:51;99402.75;;;21.26;100.00
43681;BME280;29281;50.356;30.894;2023-07-31T00:12:55;99401.73;;;21.27;100.00
43681;BME280;29281;50.356;30.894;2023-07-31T00:13:58;99394.28;;;21.29;100.00
43681;BME280;29281;50.356;30.894;2023-07-31T00:15:03;99398.00;;;21.28;100.00
43681;BME280;29281;50.356;30.894;2023-07-31T00:16:08;99401.73;;;21.27;100.00
43681;BME280;29281;50.356;30.894;2023-07-31T00:17:12;99401.08;;;21.25;100.00
43681;BME280;29281;50.356;30.894;2023-07-31T00:18:16;99401.00;;;21.18;100.00
43681;BME280;29281;50.356;30.894;2023-07-31T00:19:19;99399.64;;;21.08;100.00
43681;BME280;29281;50.356;30.894;2023-07-31T00:20:24;99397.51;;;21.03;100.00
43681;BME280;29281;50.356;30.894;2023-07-31T00:21:28;99399.69;;;20.93;100.00
43681;BME280;29281;50.356;30.894;2023-07-31T00:22:33;99396.70;;;20.88;100.00
43681;BME280;29281;50.356;30.894;2023-07-31T00:23:39;99395.69;;;20.89;100.00
43681;BME280;29281;50.356;30.894;2023-07-31T00:24:43;99391.83;;;20.98;100.00
43681;BME280;29281;50.356;30.894;2023-07-31T00:25:47;99388.05;;;20.92;100.00
43681;BME280;29281;50.356;30.894;2023-07-31T00:26:53;99387.46;;;20.97;100.00
43681;BME280;29281;50.356;30.894;2023-07-31T00:27:59;99388.95;;;20.99;100.00
43681;BME280;29281;50.356;30.894;2023-07-31T00:29:02;99383.45;;;21.08;100.00
43681;BME280;29281;50.356;30.894;2023-07-31T00:30:06;99389.88;;;21.06;100.00
43681;BME280;29281;50.356;30.894;2023-07-31T00:31:10;99381.13;;;21.04;100.00
43681;BME280;29281;50.356;30.894;2023-07-31T00:32:17;99391.14;;;21.11;100.00
43681;BME280;29281;50.356;30.894;2023-07-31T00:33:22;99390.25;;;21.03;100.00
43681;BME280;29281;50.356;30.894;2023-07-31T00:34:26;99386.89;;;21.01;100.00
43681;BME280;29281;50.356;30.894;2023-07-31T00:35:37;99390.63;;;21.00;100.00
43681;BME280;29281;50.356;30.894;2023-07-31T00:36:41;99383.17;;;21.02;100.00
43681;BME280;29281;50.356;30.894;2023-07-31T00:37:45;99391.92;;;21.04;100.00
43681;BME280;29281;50.356;30.894;2023-07-31T00:38:48;99394.02;;;21.09;100.00
43681;BME280;29281;50.356;30.894;2023-07-31T00:39:51;99386.98;;;21.08;100.00
43681;BME280;29281;50.356;30.894;2023-07-31T00:40:56;99387.60;;;21.10;100.00
43681;BME280;29281;50.356;30.894;2023-07-31T00:42:01;99386.77;;;21.10;100.00
43681;BME280;29281;50.356;30.894;2023-07-31T00:43:07;99380.47;;;21.02;100.00
43681;BME280;29281;50.356;30.894;2023-07-31T00:44:11;99392.30;;;21.01;100.00
43681;BME280;29281;50.356;30.894;2023-07-31T00:45:14;99388.84;;;21.08;100.00
43681;BME280;29281;50.356;30.894;2023-07-31T00:46:17;99390.30;;;21.10;100.00
43681;BME280;29281;50.356;30.894;2023-07-31T00:47:21;99385.92;;;21.09;100.00
43681;BME280;29281;50.356;30.894;2023-07-31T00:48:30;99384.28;;;21.08;100.00
43681;BME280;29281;50.356;30.894;2023-07-31T00:49:39;99385.69;;;21.04;100.00
43681;BME280;29281;50.356;30.894;2023-07-31T00:50:42;99379.31;;;21.12;100.00
43681;BME280;29281;50.356;30.894;2023-07-31T00:51:47;99379.45;;;21.03;100.00
43681;BME280;29281;50.356;30.894;2023-07-31T00:53:00;99384.28;;;21.08;100.00
43681;BME280;29281;50.356;30.894;2023-07-31T00:54:04;99379.26;;;21.05;100.00
43681;BME280;29281;50.356;30.894;2023-07-31T00:55:13;99380.09;;;21.05;100.00
43681;BME280;29281;50.356;30.894;2023-07-31T00:56:14;99385.03;;;21.02;100.00
43681;BME280;29281;50.356;30.894;2023-07-31T00:57:18;99375.34;;;21.08;100.00
43681;BME280;29281;50.356;30.894;2023-07-31T00:58:26;99377.40;;;21.05;100.00
43681;BME280;29281;50.356;30.894;2023-07-31T00:59:30;99384.20;;;21.01;100.00
43681;BME280;29281;50.356;30.894;2023-07-31T01:00:33;99388.38;;;21.04;100.00
43681;BME280;29281;50.356;30.894;2023-07-31T01:01:37;99382.80;;;21.05;100.00
43681;BME280;29281;50.356;30.894;2023-07-31T01:02:44;99382.80;;;21.05;100.00
43681;BME280;29281;50.356;30.894;2023-07-31T01:03:49;99386.98;;;21.08;100.00
43681;BME280;29281;50.356;30.894;2023-07-31T01:04:56;99383.27;;;20.94;100.00
43681;BME280;29281;50.356;30.894;2023-07-31T01:07:14;99389.45;;;20.88;100.00
43681;BME280;29281;50.356;30.894;2023-07-31T01:08:21;99381.08;;;20.83;100.00
43681;BME280;29281;50.356;30.894;2023-07-31T01:09:37;99385.39;;;20.78;100.00
43681;BME280;29281;50.356;30.894;2023-07-31T01:10:45;99384.14;;;20.80;100.00
43681;BME280;29281;50.356;30.894;2023-07-31T01:11:51;99390.66;;;20.86;100.00
43681;BME280;29281;50.356;30.894;2023-07-31T01:12:53;99378.66;;;20.88;100.00
43681;BME280;29281;50.356;30.894;2023-07-31T01:14:00;99381.35;;;20.88;100.00
43681;BME280;29281;50.356;30.894;2023-07-31T01:15:05;99381.17;;;20.90;100.00
43681;BME280;29281;50.356;30.894;2023-07-31T01:16:09;99380.61;;;20.80;100.00
43681;BME280;29281;50.356;30.894;2023-07-31T01:17:13;99385.17;;;20.79;100.00
43681;BME280;29281;50.356;30.894;2023-07-31T01:18:15;99379.86;;;20.86;100.00
43681;BME280;29281;50.356;30.894;2023-07-31T01:19:23;99384.89;;;20.89;100.00
43681;BME280;29281;50.356;30.894;2023-07-31T01:20:29;99387.22;;;20.92;100.00
43681;BME280;29281;50.356;30.894;2023-07-31T01:26:33;99400.71;;;20.92;100.00
43681;BME280;29281;50.356;30.894;2023-07-31T01:27:42;99399.31;;;20.81;100.00
43681;BME280;29281;50.356;30.894;2023-07-31T01:30:03;99401.64;;;20.84;100.00
43681;BME280;29281;50.356;30.894;2023-07-31T01:31:03;99393.92;;;20.81;100.00
43681;BME280;29281;50.356;30.894;2023-07-31T01:32:07;99394.56;;;20.83;100.00
43681;BME280;29281;50.356;30.894;2023-07-31T01:33:10;99399.78;;;20.85;100.00
43681;BME280;29281;50.356;30.894;2023-07-31T01:34:14;99395.41;;;20.84;100.00
43681;BME280;29281;50.356;30.894;2023-07-31T01:35:21;99396.43;;;20.83;100.00
43681;BME280;29281;50.356;30.894;2023-07-31T01:36:25;99393.02;;;20.74;100.00
43681;BME280;29281;50.356;30.894;2023-07-31T01:37:28;99385.58;;;20.76;100.00
43681;BME280;29281;50.356;30.894;2023-07-31T01:38:33;99390.50;;;20.73;100.00
43681;BME280;29281;50.356;30.894;2023-07-31T01:39:37;99397.83;;;20.79;100.00
43681;BME280;29281;50.356;30.894;2023-07-31T01:40:41;99391.72;;;20.70;100.00
43681;BME280;29281;50.356;30.894;2023-07-31T01:41:44;99391.43;;;20.65;100.00
43681;BME280;29281;50.356;30.894;2023-07-31T01:42:51;99393.48;;;20.63;100.00
43681;BME280;29281;50.356;30.894;2023-07-31T01:43:55;99398.44;;;20.59;100.00
43681;BME280;29281;50.356;30.894;2023-07-31T01:44:58;99394.06;;;20.58;100.00
43681;BME280;29281;50.356;30.894;2023-07-31T01:46:03;99392.02;;;20.60;100.00
43681;BME280;29281;50.356;30.894;2023-07-31T01:47:06;99394.13;;;20.65;100.00
43681;BME280;29281;50.356;30.894;2023-07-31T01:48:10;99394.23;;;20.71;100.00
43681;BME280;29281;50.356;30.894;2023-07-31T01:49:13;99391.90;;;20.68;100.00
43681;BME280;29281;50.356;30.894;2023-07-31T01:50:17;99389.57;;;20.65;100.00
43681;BME280;29281;50.356;30.894;2023-07-31T01:51:21;99388.67;;;20.58;100.00
43681;BME280;29281;50.356;30.894;2023-07-31T01:52:26;99390.89;;;20.55;100.00
43681;BME280;29281;50.356;30.894;2023-07-31T01:53:30;99387.66;;;20.45;100.00
43681;BME280;29281;50.356;30.894;2023-07-31T01:54:34;99395.17;;;20.49;100.00
43681;BME280;29281;50.356;30.894;2023-07-31T01:55:40;99386.05;;;20.50;100.00
43681;BME280;29281;50.356;30.894;2023-07-31T01:56:43;99386.23;;;20.49;100.00
43681;BME280;29281;50.356;30.894;2023-07-31T01:57:47;99386.05;;;20.50;100.00
43681;BME280;29281;50.356;30.894;2023-07-31T01:58:54;99383.54;;;20.49;100.00
43681;BME280;29281;50.356;30.894;2023-07-31T01:59:57;99383.73;;;20.47;100.00
43681;BME280;29281;50.356;30.894;2023-07-31T02:01:00;99386.64;;;20.46;100.00
43681;BME280;29281;50.356;30.894;2023-07-31T02:02:10;99387.27;;;20.48;100.00
43681;BME280;29281;50.356;30.894;2023-07-31T02:03:15;99382.92;;;20.47;100.00
43681;BME280;29281;50.356;30.894;2023-07-31T02:04:20;99381.69;;;20.49;100.00
43681;BME280;29281;50.356;30.894;2023-07-31T02:05:24;99381.87;;;20.48;100.00
43681;BME280;29281;50.356;30.894;2023-07-31T02:06:26;99379.83;;;20.50;100.00
43681;BME280;29281;50.356;30.894;2023-07-31T02:07:30;99380.30;;;20.53;100.00
43681;BME280;29281;50.356;30.894;2023-07-31T02:08:33;99383.64;;;20.55;100.00
43681;BME280;29281;50.356;30.894;2023-07-31T02:09:38;99381.50;;;20.51;100.00
43681;BME280;29281;50.356;30.894;2023-07-31T02:10:42;99392.47;;;20.49;100.00
43681;BME280;29281;50.356;30.894;2023-07-31T02:11:50;99394.52;;;20.47;100.00
43681;BME280;29281;50.356;30.894;2023-07-31T02:12:53;99392.40;;;20.43;100.00
43681;BME280;29281;50.356;30.894;2023-07-31T02:13:57;99392.40;;;20.43;100.00
43681;BME280;29281;50.356;30.894;2023-07-31T02:15:00;99392.58;;;20.41;100.00
43681;BME280;29281;50.356;30.894;2023-07-31T02:16:05;99389.05;;;20.41;100.00
43681;BME280;29281;50.356;30.894;2023-07-31T02:17:08;99395.94;;;20.43;100.00
43681;BME280;29281;50.356;30.894;2023-07-31T02:18:11;99392.77;;;20.40;100.00
43681;BME280;29281;50.356;30.894;2023-07-31T02:19:15;99391.17;;;20.30;100.00
43681;BME280;29281;50.356;30.894;2023-07-31T02:20:19;99388.18;;;20.25;100.00
43681;BME280;29281;50.356;30.894;2023-07-31T02:21:27;99390.22;;;20.23;100.00
43681;BME280;29281;50.356;30.894;2023-07-31T02:22:33;99394.59;;;20.24;100.00
43681;BME280;29281;50.356;30.894;2023-07-31T02:23:37;99388.18;;;20.25;100.00
43681;BME280;29281;50.356;30.894;2023-07-31T02:24:43;99389.56;;;20.21;100.00
43681;BME280;29281;50.356;30.894;2023-07-31T02:25:47;99385.48;;;20.25;100.00
43681;BME280;29281;50.356;30.894;2023-07-31T02:26:52;99386.33;;;20.26;100.00
43681;BME280;29281;50.356;30.894;2023-07-31T02:27:56;99384.83;;;20.23;100.00
43681;BME280;29281;50.356;30.894;2023-07-31T02:29:01;99389.67;;;20.28;100.00
43681;BME280;29281;50.356;30.894;2023-07-31T02:30:05;99386.22;;;20.19;100.00
43681;BME280;29281;50.356;30.894;2023-07-31T02:31:10;99380.27;;;20.24;100.00
43681;BME280;29281;50.356;30.894;2023-07-31T02:32:13;99383.52;;;20.19;100.00
43681;BME280;29281;50.356;30.894;2023-07-31T02:33:24;99381.77;;;20.26;100.00
43681;BME280;29281;50.356;30.894;2023-07-31T02:34:30;99391.61;;;20.34;100.00
43681;BME280;29281;50.356;30.894;2023-07-31T02:35:34;99386.91;;;20.36;100.00
43681;BME280;29281;50.356;30.894;2023-07-31T02:36:38;99385.33;;;20.42;100.00
43681;BME280;29281;50.356;30.894;2023-07-31T02:37:44;99388.68;;;20.44;100.00
43681;BME280;29281;50.356;30.894;2023-07-31T02:38:48;99384.56;;;20.48;100.00
43681;BME280;29281;50.356;30.894;2023-07-31T02:39:52;99383.94;;;20.46;100.00
43681;BME280;29281;50.356;30.894;2023-07-31T02:40:55;99387.36;;;20.54;100.00
43681;BME280;29281;50.356;30.894;2023-07-31T02:41:59;99381.03;;;20.47;100.00
43681;BME280;29281;50.356;30.894;2023-07-31T02:43:03;99379.83;;;20.50;100.00
43681;BME280;29281;50.356;30.894;2023-07-31T02:44:15;99377.31;;;20.48;100.00
43681;BME280;29281;50.356;30.894;2023-07-31T02:45:18;99381.03;;;20.47;100.00
43681;BME280;29281;50.356;30.894;2023-07-31T02:46:20;99381.31;;;20.52;100.00
43681;BME280;29281;50.356;30.894;2023-07-31T02:47:27;99383.92;;;20.60;100.00
43681;BME280;29281;50.356;30.894;2023-07-31T02:48:31;99379.09;;;20.56;100.00
43681;BME280;29281;50.356;30.894;2023-07-31T02:49:35;99374.83;;;20.47;100.00
43681;BME280;29281;50.356;30.894;2023-07-31T02:50:41;99382.69;;;20.33;100.00
43681;BME280;29281;50.356;30.894;2023-07-31T02:51:44;99376.56;;;20.25;100.00
43681;BME280;29281;50.356;30.894;2023-07-31T02:52:47;99382.06;;;20.31;100.00
43681;BME280;29281;50.356;30.894;2023-07-31T02:53:51;99366.17;;;20.36;100.00
43681;BME280;29281;50.356;30.894;2023-07-31T02:54:54;99378.27;;;20.41;100.00
43681;BME280;29281;50.356;30.894;2023-07-31T02:55:57;99382.50;;;20.35;100.00
43681;BME280;29281;50.356;30.894;2023-07-31T02:57:01;99378.42;;;20.24;100.00
43681;BME280;29281;50.356;30.894;2023-07-31T02:58:05;99379.55;;;20.30;100.00
43681;BME280;29281;50.356;30.894;2023-07-31T02:59:09;99375.91;;;20.23;100.00
43681;BME280;29281;50.356;30.894;2023-07-31T03:00:12;99380.83;;;20.19;100.00
43681;BME280;29281;50.356;30.894;2023-07-31T03:01:16;99379.44;;;20.23;100.00
43681;BME280;29281;50.356;30.894;2023-07-31T03:02:23;99377.30;;;20.19;100.00
43681;BME280;29281;50.356;30.894;2023-07-31T03:03:41;99382.06;;;20.31;100.00
43681;BME280;29281;50.356;30.894;2023-07-31T03:04:47;99384.83;;;20.23;100.00
43681;BME280;29281;50.356;30.894;2023-07-31T03:05:49;99382.42;;;20.14;100.00
43681;BME280;29281;50.356;30.894;2023-07-31T03:06:53;99385.70;;;20.39;100.00
43681;BME280;29281;50.356;30.894;2023-07-31T03:07:56;99386.83;;;20.44;100.00
43681;BME280;29281;50.356;30.894;2023-07-31T03:09:02;99388.73;;;20.35;100.00
43681;BME280;29281;50.356;30.894;2023-07-31T03:10:07;99386.99;;;20.57;100.00
43681;BME280;29281;50.356;30.894;2023-07-31T03:11:12;99392.45;;;20.64;100.00
43681;BME280;29281;50.356;30.894;2023-07-31T03:12:31;99387.89;;;20.64;100.00
43681;BME280;29281;50.356;30.894;2023-07-31T03:13:42;99391.06;;;20.68;100.00
43681;BME280;29281;50.356;30.894;2023-07-31T03:14:45;99388.64;;;20.73;100.00
43681;BME280;29281;50.356;30.894;2023-07-31T03:15:50;99386.10;;;20.86;100.00
43681;BME280;29281;50.356;30.894;2023-07-31T03:16:55;99384.58;;;20.98;100.00
43681;BME280;29281;50.356;30.894;2023-07-31T03:18:01;99391.03;;;20.83;100.00
43681;BME280;29281;50.356;30.894;2023-07-31T03:19:04;99391.69;;;20.85;100.00
43681;BME280;29281;50.356;30.894;2023-07-31T03:20:08;99392.30;;;21.01;100.00
43681;BME280;29281;50.356;30.894;2023-07-31T03:21:13;99403.19;;;21.08;100.00
43681;BME280;29281;50.356;30.894;2023-07-31T03:22:17;99403.70;;;21.18;100.00
43681;BME280;29281;50.356;30.894;2023-07-31T03:23:23;99408.26;;;21.18;100.00
43681;BME280;29281;50.356;30.894;2023-07-31T03:24:26;99408.36;;;21.10;100.00
43681;BME280;29281;50.356;30.894;2023-07-31T03:25:30;99410.03;;;21.11;100.00
43681;BME280;29281;50.356;30.894;2023-07-31T03:26:33;99409.86;;;20.76;100.00
43681;BME280;29281;50.356;30.894;2023-07-31T03:27:39;99402.38;;;20.78;100.00
43681;BME280;29281;50.356;30.894;2023-07-31T03:28:42;99406.76;;;20.79;100.00
43681;BME280;29281;50.356;30.894;2023-07-31T03:29:47;99409.92;;;20.83;100.00
43681;BME280;29281;50.356;30.894;2023-07-31T03:30:55;99412.53;;;20.91;100.00
43681;BME280;29281;50.356;30.894;2023-07-31T03:31:58;99408.81;;;20.92;100.00
43681;BME280;29281;50.356;30.894;2023-07-31T03:33:03;99408.41;;;20.95;100.00
43681;BME280;29281;50.356;30.894;2023-07-31T03:34:08;99410.77;;;20.83;100.00
43681;BME280;29281;50.356;30.894;2023-07-31T03:35:14;99409.45;;;20.79;100.00
43681;BME280;29281;50.356;30.894;2023-07-31T03:36:21;99412.09;;;20.73;100.00
43681;BME280;29281;50.356;30.894;2023-07-31T03:37:25;99415.26;;;20.76;100.00
43681;BME280;29281;50.356;30.894;2023-07-31T03:38:31;99412.17;;;20.64;100.00
43681;BME280;29281;50.356;30.894;2023-07-31T03:39:35;99411.63;;;20.69;100.00
43681;BME280;29281;50.356;30.894;2023-07-31T03:40:40;99410.31;;;20.65;100.00
43681;BME280;29281;50.356;30.894;2023-07-31T03:41:43;99407.06;;;20.69;100.00
43681;BME280;29281;50.356;30.894;2023-07-31T03:42:45;99408.64;;;20.64;100.00
43681;BME280;29281;50.356;30.894;2023-07-31T03:43:51;99411.07;;;20.74;100.00
43681;BME280;29281;50.356;30.894;2023-07-31T03:45:00;99410.27;;;20.94;100.00
43681;BME280;29281;50.356;30.894;2023-07-31T03:46:05;99420.16;;;20.87;100.00
43681;BME280;29281;50.356;30.894;2023-07-31T03:47:09;99419.69;;;20.84;100.00
43681;BME280;29281;50.356;30.894;2023-07-31T03:48:13;99415.69;;;20.80;100.00
43681;BME280;29281;50.356;30.894;2023-07-31T03:49:20;99415.34;;;20.68;100.00
43681;BME280;29281;50.356;30.894;2023-07-31T03:50:23;99410.05;;;20.75;100.00
43681;BME280;29281;50.356;30.894;2023-07-31T03:51:27;99413.46;;;20.83;100.00
43681;BME280;29281;50.356;30.894;2023-07-31T03:52:30;99412.34;;;20.92;100.00
43681;BME280;29281;50.356;30.894;2023-07-31T03:53:34;99419.29;;;21.01;100.00
43681;BME280;29281;50.356;30.894;2023-07-31T03:54:38;99416.96;;;20.98;100.00
43681;BME280;29281;50.356;30.894;2023-07-31T03:55:42;99422.27;;;21.06;100.00
43681;BME280;29281;50.356;30.894;2023-07-31T03:56:47;99416.92;;;21.13;100.00
43681;BME280;29281;50.356;30.894;2023-07-31T03:57:50;99416.36;;;21.18;100.00
43681;BME280;29281;50.356;30.894;2023-07-31T03:58:55;99423.44;;;21.19;100.00
43681;BME280;29281;50.356;30.894;2023-07-31T03:59:58;99424.30;;;21.19;100.00
43681;BME280;29281;50.356;30.894;2023-07-31T04:01:02;99421.77;;;21.18;100.00
43681;BME280;29281;50.356;30.894;2023-07-31T04:02:06;99419.23;;;21.31;100.00
43681;BME280;29281;50.356;30.894;2023-07-31T04:03:10;99418.39;;;21.30;100.00
43681;BME280;29281;50.356;30.894;2023-07-31T04:04:15;99425.80;;;21.22;100.00
43681;BME280;29281;50.356;30.894;2023-07-31T04:05:22;99417.74;;;21.28;100.00
43681;BME280;29281;50.356;30.894;2023-07-31T04:06:25;99423.04;;;21.36;100.00
43681;BME280;29281;50.356;30.894;2023-07-31T04:07:30;99419.37;;;21.23;100.00
43681;BME280;29281;50.356;30.894;2023-07-31T04:08:33;99420.25;;;21.30;100.00
43681;BME280;29281;50.356;30.894;2023-07-31T04:09:41;99426.33;;;21.17;100.00
43681;BME280;29281;50.356;30.894;2023-07-31T04:10:45;99428.63;;;21.35;100.00
43681;BME280;29281;50.356;30.894;2023-07-31T04:11:50;99427.33;;;21.31;100.00
43681;BME280;29281;50.356;30.894;2023-07-31T04:12:54;99422.63;;;21.39;100.00
43681;BME280;29281;50.356;30.894;2023-07-31T04:13:59;99429.59;;;21.49;100.00
43681;BME280;29281;50.356;30.894;2023-07-31T04:15:04;99430.16;;;21.44;100.00
43681;BME280;29281;50.356;30.894;2023-07-31T04:16:08;99428.81;;;21.33;100.00
43681;BME280;29281;50.356;30.894;2023-07-31T04:17:11;99438.64;;;21.41;100.00
43681;BME280;29281;50.356;30.894;2023-07-31T04:18:15;99428.76;;;21.48;100.00
43681;BME280;29281;50.356;30.894;2023-07-31T04:19:18;99435.13;;;21.62;100.00
43681;BME280;29281;50.356;30.894;2023-07-31T04:20:25;99427.09;;;21.68;100.00
43681;BME280;29281;50.356;30.894;2023-07-31T04:21:28;99436.23;;;21.67;100.00
43681;BME280;29281;50.356;30.894;2023-07-31T04:22:34;99433.64;;;21.59;100.00
43681;BME280;29281;50.356;30.894;2023-07-31T04:23:37;99440.14;;;21.65;100.00
43681;BME280;29281;50.356;30.894;2023-07-31T04:24:50;99442.81;;;21.86;100.00
43681;BME280;29281;50.356;30.894;2023-07-31T04:25:53;99449.78;;;21.74;100.00
43681;BME280;29281;50.356;30.894;2023-07-31T04:26:57;99445.55;;;21.65;100.00
43681;BME280;29281;50.356;30.894;2023-07-31T04:28:01;99447.65;;;21.69;100.00
43681;BME280;29281;50.356;30.894;2023-07-31T04:29:05;99448.83;;;21.82;100.00
43681;BME280;29281;50.356;30.894;2023-07-31T04:30:09;99453.23;;;21.89;100.00
43681;BME280;29281;50.356;30.894;2023-07-31T04:31:13;99447.78;;;22.04;100.00
43681;BME280;29281;50.356;30.894;2023-07-31T04:32:17;99448.94;;;21.95;100.00
43681;BME280;29281;50.356;30.894;2023-07-31T04:33:20;99448.67;;;21.90;100.00
43681;BME280;29281;50.356;30.894;2023-07-31T04:34:39;99447.83;;;21.89;100.00
43681;BME280;29281;50.356;30.894;2023-07-31T04:35:48;99444.26;;;21.82;100.00
43681;BME280;29281;50.356;30.894;2023-07-31T04:36:48;99446.50;;;21.79;100.00
43681;BME280;29281;50.356;30.894;2023-07-31T04:37:51;99447.65;;;21.69;100.00
43681;BME280;29281;50.356;30.894;2023-07-31T04:38:54;99452.09;;;21.77;100.00
43681;BME280;29281;50.356;30.894;2023-07-31T04:40:00;99454.08;;;21.90;100.00
43681;BME280;29281;50.356;30.894;2023-07-31T04:41:03;99455.05;;;22.03;100.00
43681;BME280;29281;50.356;30.894;2023-07-31T04:42:09;99454.09;;;22.11;100.00
43681;BME280;29281;50.356;30.894;2023-07-31T04:43:17;99460.08;;;22.06;100.00
43681;BME280;29281;50.356;30.894;2023-07-31T04:44:21;99462.30;;;22.24;100.00
43681;BME280;29281;50.356;30.894;2023-07-31T04:45:25;99458.11;;;22.22;100.00
43681;BME280;29281;50.356;30.894;2023-07-31T04:46:27;99465.39;;;22.21;100.00
43681;BME280;29281;50.356;30.894;2023-07-31T04:47:34;99465.39;;;22.21;100.00
43681;BME280;29281;50.356;30.894;2023-07-31T04:48:38;99457.92;;;22.23;100.00
43681;BME280;29281;50.356;30.894;2023-07-31T04:49:42;99461.17;;;22.12;100.00
43681;BME280;29281;50.356;30.894;2023-07-31T04:50:48;99467.42;;;22.13;100.00
43681;BME280;29281;50.356;30.894;2023-07-31T04:51:51;99462.23;;;22.18;100.00
43681;BME280;29281;50.356;30.894;2023-07-31T04:52:55;99456.98;;;22.09;100.00
43681;BME280;29281;50.356;30.894;2023-07-31T04:53:59;99462.39;;;22.09;100.00
43681;BME280;29281;50.356;30.894;2023-07-31T04:55:02;99465.22;;;22.01;100.00
43681;BME280;29281;50.356;30.894;2023-07-31T04:56:05;99465.74;;;22.12;100.00
43681;BME280;29281;50.356;30.894;2023-07-31T04:57:08;99466.77;;;22.10;100.00
43681;BME280;29281;50.356;30.894;2023-07-31T04:58:22;99468.05;;;21.93;100.00
43681;BME280;29281;50.356;30.894;2023-07-31T04:59:26;99467.98;;;21.87;100.00
43681;BME280;29281;50.356;30.894;2023-07-31T05:00:29;99468.37;;;22.05;100.00
43681;BME280;29281;50.356;30.894;2023-07-31T05:01:33;99472.62;;;21.93;100.00
43681;BME280;29281;50.356;30.894;2023-07-31T05:02:36;99473.14;;;22.03;100.00
43681;BME280;29281;50.356;30.894;2023-07-31T05:03:40;99479.64;;;22.08;100.00
43681;BME280;29281;50.356;30.894;2023-07-31T05:04:44;99479.70;;;21.94;100.00
43681;BME280;29281;50.356;30.894;2023-07-31T05:05:55;99478.28;;;21.98;100.00
43681;BME280;29281;50.356;30.894;2023-07-31T05:07:00;99479.12;;;21.77;100.00
43681;BME280;29281;50.356;30.894;2023-07-31T05:08:04;99478.75;;;21.80;100.00
43681;BME280;29281;50.356;30.894;2023-07-31T05:09:09;99475.06;;;21.88;100.00
43681;BME280;29281;50.356;30.894;2023-07-31T05:10:21;99479.24;;;21.90;100.00
43681;BME280;29281;50.356;30.894;2023-07-31T05:11:25;99488.07;;;21.78;100.00
43681;BME280;29281;50.356;30.894;2023-07-31T05:12:29;99481.52;;;21.65;100.00
43681;BME280;29281;50.356;30.894;2023-07-31T05:13:34;99476.11;;;21.65;100.00
43681;BME280;29281;50.356;30.894;2023-07-31T05:14:40;99484.91;;;21.74;100.00
43681;BME280;29281;50.356;30.894;2023-07-31T05:15:44;99486.52;;;21.90;100.00
43681;BME280;29281;50.356;30.894;2023-07-31T05:16:47;99480.22;;;22.04;100.00
43681;BME280;29281;50.356;30.894;2023-07-31T05:17:51;99487.69;;;22.02;100.00
43681;BME280;29281;50.356;30.894;2023-07-31T05:18:57;99489.47;;;22.16;100.00
43681;BME280;29281;50.356;30.894;2023-07-31T05:20:01;99489.05;;;22.13;100.00
43681;BME280;29281;50.356;30.894;2023-07-31T05:21:04;99486.54;;;22.11;100.00
43681;BME280;29281;50.356;30.894;2023-07-31T05:22:07;99486.34;;;22.13;100.00
43681;BME280;29281;50.356;30.894;2023-07-31T05:23:11;99485.13;;;22.15;100.00
43681;BME280;29281;50.356;30.894;2023-07-31T05:24:16;99481.68;;;22.28;100.00
43681;BME280;29281;50.356;30.894;2023-07-31T05:25:18;99486.92;;;22.36;100.00
43681;BME280;29281;50.356;30.894;2023-07-31T05:26:22;99483.97;;;22.31;100.00
43681;BME280;29281;50.356;30.894;2023-07-31T05:27:28;99489.38;;;22.31;100.00
43681;BME280;29281;50.356;30.894;2023-07-31T05:28:33;99495.52;;;22.18;100.00
43681;BME280;29281;50.356;30.894;2023-07-31T05:29:37;99495.23;;;22.06;100.00
43681;BME280;29281;50.356;30.894;2023-07-31T05:30:40;99495.30;;;22.13;100.00
43681;BME280;29281;50.356;30.894;2023-07-31T05:31:43;99492.63;;;22.20;100.00
43681;BME280;29281;50.356;30.894;2023-07-31T05:32:47;99497.73;;;22.08;100.00
43681;BME280;29281;50.356;30.894;2023-07-31T05:33:49;99502.57;;;22.13;100.00
43681;BME280;29281;50.356;30.894;2023-07-31T05:34:53;99501.28;;;22.08;100.00
43681;BME280;29281;50.356;30.894;2023-07-31T05:35:57;99497.93;;;22.06;100.00
43681;BME280;29281;50.356;30.894;2023-07-31T05:37:00;99492.89;;;22.25;100.00
43681;BME280;29281;50.356;30.894;2023-07-31T05:38:04;99498.75;;;22.28;100.00
43681;BME280;29281;50.356;30.894;2023-07-31T05:39:08;99498.00;;;22.41;100.00
43681;BME280;29281;50.356;30.894;2023-07-31T05:40:11;99501.38;;;22.50;100.00
43681;BME280;29281;50.356;30.894;2023-07-31T05:41:17;99493.04;;;22.44;100.00